Time;durP1;ratioP1;P1;durP2;ratioP2;P2;SDS_P1;SDS_P2;PMS_P1;PMS_P2;Temp;Humidity;BMP_temperature;BMP_pressure;BME280_temperature;BME280_humidity;BME280_pressure;Samples;Min_cycle;Max_cycle;Signal;HPM_P1;HPM_P2
2023/04/13 00:00:46;;;;;;;3.30;3.00;;;5.50;99.90;;;;;;5077849;28;20040;-85
2023/04/13 00:03:15;;;;;;;3.63;3.08;;;5.50;99.90;;;;;;5093739;28;20047;-85
2023/04/13 00:05:42;;;;;;;3.42;3.13;;;5.70;99.90;;;;;;5079124;28;20052;-85
2023/04/13 00:08:07;;;;;;;3.65;3.35;;;5.70;99.90;;;;;;5093998;28;20047;-85
2023/04/13 00:10:35;;;;;;;4.07;3.67;;;5.80;99.90;;;;;;5093265;28;20850;-85
2023/04/13 00:13:02;;;;;;;5.75;3.00;;;5.90;99.90;;;;;;5075975;28;20039;-86
2023/04/13 00:15:28;;;;;;;4.63;3.13;;;6.00;99.90;;;;;;5094519;28;20047;-86
2023/04/13 00:17:54;;;;;;;5.53;3.55;;;6.00;99.90;;;;;;5110383;27;20057;-86
2023/04/13 00:20:20;;;;;;;4.28;3.33;;;6.10;99.90;;;;;;5092961;28;20130;-86
2023/04/13 00:22:47;;;;;;;5.97;3.47;;;6.20;99.90;;;;;;5094275;27;20157;-86
2023/04/13 00:25:14;;;;;;;4.45;3.40;;;6.20;99.90;;;;;;5094200;28;20055;-85
2023/04/13 00:27:42;;;;;;;5.35;3.67;;;6.30;99.90;;;;;;5119380;27;20051;-85
2023/04/13 00:30:10;;;;;;;4.13;3.08;;;6.30;99.90;;;;;;5117012;27;20477;-86
2023/04/13 00:32:38;;;;;;;4.20;3.10;;;6.40;99.90;;;;;;5097557;27;20043;-86
2023/04/13 00:35:04;;;;;;;5.70;3.28;;;6.60;99.90;;;;;;5100675;27;20291;-86
2023/04/13 00:37:31;;;;;;;4.20;3.40;;;6.50;99.90;;;;;;5079758;27;20063;-85
2023/04/13 00:39:58;;;;;;;3.75;3.38;;;6.50;99.90;;;;;;5101594;27;20047;-86
2023/04/13 00:42:24;;;;;;;4.57;3.53;;;6.60;99.90;;;;;;5100315;27;20062;-86
2023/04/13 00:44:52;;;;;;;3.70;3.22;;;6.50;99.90;;;;;;5098194;27;20186;-86
2023/04/13 00:47:27;;;;;;;3.58;3.28;;;6.50;99.90;;;;;;5097699;27;20466;-86
2023/04/13 00:49:59;;;;;;;5.50;2.95;;;6.40;99.90;;;;;;5095562;27;20050;-86
2023/04/13 00:52:25;;;;;;;4.38;2.75;;;7.10;99.90;;;;;;5097420;27;20047;-86
2023/04/13 00:54:55;;;;;;;4.85;2.50;;;6.40;99.90;;;;;;5099232;27;20115;-85
2023/04/13 00:57:22;;;;;;;4.05;2.65;;;6.30;99.90;;;;;;5083150;27;20137;-86
2023/04/13 00:59:48;;;;;;;2.67;2.47;;;6.30;99.90;;;;;;5098168;27;20065;-86
2023/04/13 01:02:15;;;;;;;3.25;2.47;;;6.30;99.90;;;;;;5116183;27;20495;-85
2023/04/13 01:04:41;;;;;;;3.88;2.65;;;6.20;99.90;;;;;;5120024;27;20218;-85
2023/04/13 01:07:19;;;;;;;5.32;2.85;;;6.20;99.90;;;;;;5097937;27;20391;-85
2023/04/13 01:10:06;;;;;;;4.78;2.78;;;6.20;99.90;;;;;;5081428;27;20123;-86
2023/04/13 01:12:46;;;;;;;3.45;2.55;;;6.20;99.90;;;;;;5097930;27;20055;-85
2023/04/13 01:15:13;;;;;;;4.82;2.58;;;6.20;99.90;;;;;;5096539;27;20050;-85
2023/04/13 01:17:50;;;;;;;5.15;2.95;;;6.10;99.90;;;;;;5096277;27;20039;-84
2023/04/13 01:20:17;;;;;;;5.03;2.47;;;6.10;99.90;;;;;;5080983;27;21459;-84
2023/04/13 01:22:56;;;;;;;4.78;2.78;;;6.10;99.90;;;;;;5083447;27;20516;-84
2023/04/13 01:25:40;;;;;;;4.68;2.20;;;6.10;99.90;;;;;;5079485;27;20043;-85
2023/04/13 01:28:14;;;;;;;2.58;2.20;;;6.00;99.90;;;;;;5083042;27;20046;-85
2023/04/13 01:30:41;;;;;;;2.90;1.98;;;6.00;99.90;;;;;;5099915;27;20126;-84
2023/04/13 01:33:08;;;;;;;3.88;2.20;;;6.00;99.90;;;;;;5097476;27;20063;-85
2023/04/13 01:35:35;;;;;;;2.47;2.03;;;6.00;99.90;;;;;;5099205;27;20043;-86
2023/04/13 01:38:02;;;;;;;4.93;2.45;;;6.00;99.90;;;;;;5095951;27;20607;-84
2023/04/13 01:40:29;;;;;;;3.25;2.10;;;6.00;99.90;;;;;;5093934;27;20054;-85
2023/04/13 01:42:58;;;;;;;2.00;1.80;;;6.00;99.90;;;;;;5084386;27;20035;-85
2023/04/13 01:45:29;;;;;;;2.83;2.00;;;6.00;99.90;;;;;;5082053;27;20111;-84
2023/04/13 01:48:01;;;;;;;4.38;2.47;;;6.00;99.90;;;;;;5095632;27;20047;-84
2023/04/13 01:50:38;;;;;;;3.13;1.58;;;6.00;99.90;;;;;;5079053;27;20051;-84
2023/04/13 01:53:10;;;;;;;2.90;2.05;;;6.00;99.90;;;;;;5112486;27;20031;-84
2023/04/13 01:55:40;;;;;;;3.42;2.13;;;6.70;99.90;;;;;;5081722;27;20058;-85
2023/04/13 01:58:11;;;;;;;2.38;1.75;;;6.10;99.90;;;;;;5096254;27;20413;-85
2023/04/13 02:00:38;;;;;;;3.83;1.80;;;6.00;99.90;;;;;;5078935;27;20047;-85
2023/04/13 02:03:06;;;;;;;2.75;1.73;;;6.10;99.90;;;;;;5094483;27;20525;-85
2023/04/13 02:05:32;;;;;;;2.25;1.80;;;6.00;99.90;;;;;;5096444;27;20043;-85
2023/04/13 02:07:59;;;;;;;2.05;1.45;;;6.00;99.90;;;;;;5082047;27;20123;-85
2023/04/13 02:10:25;;;;;;;2.88;1.65;;;6.10;99.90;;;;;;5097450;27;20510;-85
2023/04/13 02:12:53;;;;;;;2.58;1.70;;;6.10;99.90;;;;;;5114580;27;20039;-85
2023/04/13 02:15:19;;;;;;;3.60;1.98;;;6.10;99.90;;;;;;5116089;27;20035;-84
2023/04/13 02:17:45;;;;;;;2.30;1.80;;;6.00;99.90;;;;;;5116298;27;21135;-84
2023/04/13 02:20:11;;;;;;;2.33;1.70;;;6.00;99.90;;;;;;5078633;27;20065;-85
2023/04/13 02:22:38;;;;;;;2.75;1.85;;;6.00;99.90;;;;;;5094515;27;20576;-84
2023/04/13 02:25:05;;;;;;;3.47;1.90;;;6.00;99.90;;;;;;5113709;27;20043;-85
2023/04/13 02:27:31;;;;;;;4.45;2.00;;;6.00;99.90;;;;;;5115287;27;20070;-85
2023/04/13 02:29:57;;;;;;;3.80;1.92;;;6.00;99.90;;;;;;5095688;27;20086;-85
2023/04/13 02:32:23;;;;;;;4.10;1.55;;;6.00;99.90;;;;;;5095881;27;20130;-85
2023/04/13 02:34:49;;;;;;;2.38;1.95;;;6.00;99.90;;;;;;5095159;27;20043;-84
2023/04/13 02:37:14;;;;;;;2.35;1.70;;;6.00;99.90;;;;;;5093362;27;20065;-84
2023/04/13 02:39:41;;;;;;;1.98;1.55;;;6.00;99.90;;;;;;5101743;27;20052;-85
2023/04/13 02:42:09;;;;;;;3.03;1.73;;;6.00;99.90;;;;;;5101581;27;20109;-85
2023/04/13 02:44:35;;;;;;;2.00;1.80;;;6.00;99.90;;;;;;5081062;27;20175;-85
2023/04/13 02:47:00;;;;;;;3.80;1.92;;;6.00;99.90;;;;;;5095235;27;20443;-85
2023/04/13 02:49:26;;;;;;;2.35;1.98;;;6.00;99.90;;;;;;5096084;27;20043;-86
2023/04/13 02:51:52;;;;;;;2.30;1.58;;;6.00;99.90;;;;;;5096269;27;20035;-85
2023/04/13 02:54:18;;;;;;;4.35;2.00;;;6.00;99.90;;;;;;5094826;27;20043;-85
2023/04/13 02:56:43;;;;;;;2.50;1.98;;;6.00;99.90;;;;;;5077582;27;20096;-85
2023/04/13 02:59:09;;;;;;;2.85;1.80;;;6.00;99.90;;;;;;5094476;27;20867;-85
2023/04/13 03:01:35;;;;;;;1.98;1.70;;;6.00;99.90;;;;;;5097277;27;20047;-85
2023/04/13 03:04:01;;;;;;;1.77;1.60;;;6.00;99.90;;;;;;5115232;27;20081;-85
2023/04/13 03:06:26;;;;;;;2.00;1.75;;;6.10;99.90;;;;;;5114174;27;20452;-85
2023/04/13 03:08:52;;;;;;;1.70;1.60;;;6.00;99.90;;;;;;5095095;27;20031;-85
2023/04/13 03:11:22;;;;;;;1.75;1.65;;;6.00;99.90;;;;;;5096434;27;21183;-85
2023/04/13 03:13:47;;;;;;;4.80;1.83;;;6.10;99.90;;;;;;5116439;27;20049;-85
2023/04/13 03:16:14;;;;;;;2.70;1.73;;;6.10;99.90;;;;;;5094943;27;20043;-86
2023/04/13 03:18:39;;;;;;;2.63;1.65;;;6.10;99.90;;;;;;5095606;27;20529;-85
2023/04/13 03:21:06;;;;;;;2.50;1.80;;;6.00;99.90;;;;;;5095316;27;20038;-85
2023/04/13 03:23:31;;;;;;;2.30;2.10;;;6.10;99.90;;;;;;5111948;27;20041;-85
2023/04/13 03:25:57;;;;;;;1.90;1.80;;;6.10;99.90;;;;;;5095412;27;20039;-85
2023/04/13 03:28:22;;;;;;;3.33;1.92;;;6.10;99.90;;;;;;5094906;27;20066;-85
2023/04/13 03:30:48;;;;;;;3.05;2.10;;;6.10;99.90;;;;;;5078403;28;20454;-85
2023/04/13 03:33:14;;;;;;;5.25;2.40;;;6.00;99.90;;;;;;5094773;27;20037;-84
2023/04/13 03:35:41;;;;;;;3.28;1.90;;;6.10;99.90;;;;;;5113740;27;20146;-85
2023/04/13 03:38:10;;;;;;;2.78;1.92;;;6.10;99.90;;;;;;5100183;27;20163;-85
2023/04/13 03:40:37;;;;;;;2.55;1.85;;;6.10;99.90;;;;;;5095238;27;20423;-85
2023/04/13 03:43:02;;;;;;;2.00;1.80;;;6.00;99.90;;;;;;5094497;27;21368;-84
2023/04/13 03:45:28;;;;;;;2.45;2.10;;;6.10;99.90;;;;;;5113868;27;20127;-85
2023/04/13 03:47:53;;;;;;;2.58;1.63;;;6.10;99.90;;;;;;5113050;27;20539;-85
2023/04/13 03:50:19;;;;;;;3.97;2.25;;;6.10;99.90;;;;;;5093564;27;20394;-83
2023/04/13 03:52:45;;;;;;;2.55;2.10;;;6.10;99.90;;;;;;5094790;27;20834;-83
2023/04/13 03:55:11;;;;;;;2.35;2.15;;;6.00;99.90;;;;;;5095069;27;20158;-83
2023/04/13 03:57:36;;;;;;;3.38;2.03;;;6.00;99.90;;;;;;5095435;28;20074;-84
2023/04/13 04:00:02;;;;;;;2.78;1.92;;;6.10;99.90;;;;;;5113921;27;20043;-84
2023/04/13 04:02:28;;;;;;;2.83;2.15;;;6.10;99.90;;;;;;5113952;28;20054;-84
2023/04/13 04:04:53;;;;;;;2.25;1.92;;;6.10;99.90;;;;;;5095878;28;20417;-84
2023/04/13 04:07:22;;;;;;;2.58;1.70;;;6.10;99.90;;;;;;5094240;28;20050;-84
2023/04/13 04:09:47;;;;;;;2.88;1.80;;;6.10;99.90;;;;;;5094362;27;20077;-85
2023/04/13 04:12:14;;;;;;;2.08;1.73;;;6.10;99.90;;;;;;5094078;28;20047;-84
2023/04/13 04:14:40;;;;;;;2.05;1.95;;;6.10;99.90;;;;;;5094225;28;20491;-84
2023/04/13 04:17:05;;;;;;;2.72;2.03;;;6.10;99.90;;;;;;5094608;28;20115;-84
2023/04/13 04:19:31;;;;;;;2.20;2.00;;;6.10;99.90;;;;;;5093753;28;20397;-84
2023/04/13 04:21:56;;;;;;;2.53;2.20;;;6.10;99.90;;;;;;5094680;28;20086;-84
2023/04/13 04:24:22;;;;;;;3.38;2.20;;;6.20;99.90;;;;;;5079397;28;20047;-83
2023/04/13 04:26:49;;;;;;;4.07;2.50;;;6.10;99.90;;;;;;5094989;28;20044;-84
2023/04/13 04:29:20;;;;;;;3.78;2.83;;;6.20;99.90;;;;;;5114528;27;20066;-85
2023/04/13 04:31:51;;;;;;;3.72;2.58;;;6.10;99.90;;;;;;5076701;28;20051;-84
2023/04/13 04:34:18;;;;;;;3.58;2.70;;;6.10;99.90;;;;;;5093601;28;20051;-84
2023/04/13 04:36:50;;;;;;;3.50;2.70;;;6.20;99.90;;;;;;5098064;28;20055;-85
2023/04/13 04:39:21;;;;;;;3.72;2.92;;;6.20;99.90;;;;;;5094757;28;20157;-84
2023/04/13 04:41:48;;;;;;;3.53;2.75;;;6.20;99.90;;;;;;5114306;27;20043;-84
2023/04/13 04:44:15;;;;;;;3.20;2.75;;;6.20;99.90;;;;;;5090196;28;20047;-84
2023/04/13 04:46:42;;;;;;;2.90;2.38;;;6.20;99.90;;;;;;5118581;28;20050;-84
2023/04/13 04:49:08;;;;;;;3.15;2.85;;;6.10;99.90;;;;;;5108948;28;20047;-86
2023/04/13 04:51:35;;;;;;;4.30;3.28;;;6.10;99.90;;;;;;5093032;28;20047;-84
2023/04/13 04:54:02;;;;;;;4.28;2.95;;;6.00;99.90;;;;;;5109854;28;20043;-84
2023/04/13 04:56:28;;;;;;;4.20;3.17;;;6.00;99.90;;;;;;5110145;28;20043;-84
2023/04/13 04:58:54;;;;;;;4.20;2.88;;;5.90;99.90;;;;;;5108201;28;20130;-86
2023/04/13 05:01:25;;;;;;;3.10;2.80;;;5.80;99.90;;;;;;5089877;28;20092;-85
2023/04/13 05:03:51;;;;;;;2.75;2.55;;;5.70;99.90;;;;;;5100665;28;20043;-85
2023/04/13 05:06:17;;;;;;;4.75;3.08;;;5.70;99.90;;;;;;5109268;28;20507;-85
2023/04/13 05:08:43;;;;;;;3.67;3.00;;;5.70;99.90;;;;;;5109716;28;20154;-85
2023/04/13 05:11:09;;;;;;;3.55;2.70;;;5.60;99.90;;;;;;5109994;28;20088;-85
2023/04/13 05:13:35;;;;;;;4.15;2.95;;;5.60;99.90;;;;;;5111214;27;20051;-85
2023/04/13 05:16:01;;;;;;;4.53;3.65;;;5.60;99.90;;;;;;5113385;27;20042;-85
2023/04/13 05:18:29;;;;;;;3.45;3.10;;;5.60;99.90;;;;;;5096551;27;20103;-85
2023/04/13 05:20:55;;;;;;;5.22;3.20;;;6.00;99.90;;;;;;5113896;27;20050;-85
2023/04/13 05:23:21;;;;;;;3.33;2.90;;;5.50;99.90;;;;;;5093917;27;20047;-85
2023/04/13 05:25:47;;;;;;;5.15;2.75;;;5.50;99.90;;;;;;5100810;27;20070;-85
2023/04/13 05:28:13;;;;;;;4.07;3.17;;;5.50;99.90;;;;;;5077415;28;20048;-84
2023/04/13 05:30:38;;;;;;;5.30;3.00;;;5.50;99.90;;;;;;5092569;28;20043;-85
2023/04/13 05:33:08;;;;;;;4.00;3.20;;;5.60;99.90;;;;;;5079839;28;20144;-84
2023/04/13 05:35:33;;;;;;;6.22;3.60;;;6.30;99.90;;;;;;5091704;28;20474;-84
2023/04/13 05:37:59;;;;;;;4.00;3.30;;;5.80;99.90;;;;;;5092136;28;20050;-84
2023/04/13 05:40:26;;;;;;;3.97;3.10;;;5.80;99.90;;;;;;5093379;28;20129;-85
2023/04/13 05:42:52;;;;;;;5.88;3.17;;;5.90;99.90;;;;;;5091369;28;20143;-84
2023/04/13 05:45:18;;;;;;;5.32;3.42;;;6.10;99.90;;;;;;5075418;28;20188;-84
2023/04/13 05:47:44;;;;;;;7.30;3.20;;;7.00;99.90;;;;;;5100842;27;20449;-85
2023/04/13 05:50:12;;;;;;;5.68;3.35;;;6.40;99.90;;;;;;5108046;27;20055;-88
2023/04/13 05:52:38;;;;;;;5.75;3.17;;;6.70;99.90;;;;;;5109341;27;20046;-88
2023/04/13 05:55:05;;;;;;;5.32;3.45;;;6.90;99.90;;;;;;5105928;27;20428;-88
2023/04/13 05:57:31;;;;;;;4.43;3.25;;;6.90;99.90;;;;;;5090708;27;20054;-87
2023/04/13 05:59:57;;;;;;;4.55;3.08;;;7.70;99.90;;;;;;5109956;27;20051;-87
2023/04/13 06:02:25;;;;;;;4.78;3.22;;;6.80;99.90;;;;;;5111215;27;20481;-86
2023/04/13 06:04:53;;;;;;;5.10;3.25;;;6.80;99.90;;;;;;5110321;27;20047;-87
2023/04/13 06:07:20;;;;;;;7.80;3.17;;;7.80;99.90;;;;;;5110167;27;20043;-87
2023/04/13 06:09:46;;;;;;;7.38;4.20;;;6.80;99.90;;;;;;5111088;27;20054;-86
2023/04/13 06:12:12;;;;;;;4.93;3.53;;;6.80;99.90;;;;;;5111148;27;20047;-87
2023/04/13 06:14:39;;;;;;;6.40;4.00;;;6.80;99.90;;;;;;5111910;27;20125;-86
2023/04/13 06:17:05;;;;;;;7.95;3.90;;;6.80;99.90;;;;;;5111354;27;20053;-87
2023/04/13 06:19:31;;;;;;;6.05;4.25;;;6.80;99.90;;;;;;5129273;27;20043;-87
2023/04/13 06:21:57;;;;;;;4.90;3.88;;;6.80;99.90;;;;;;5108876;27;20054;-89
2023/04/13 06:24:22;;;;;;;6.95;3.63;;;6.70;99.90;;;;;;5109113;27;20692;-88
2023/04/13 06:26:48;;;;;;;8.80;4.15;;;6.80;99.90;;;;;;5110833;27;20050;-87
2023/04/13 06:29:14;;;;;;;8.18;4.40;;;6.90;99.90;;;;;;5095350;27;20050;-86
2023/04/13 06:31:39;;;;;;;7.20;4.40;;;6.90;99.90;;;;;;5110913;27;20062;-87
2023/04/13 06:34:06;;;;;;;9.35;3.88;;;7.00;99.90;;;;;;5109035;27;20035;-87
2023/04/13 06:36:31;;;;;;;6.80;3.90;;;7.00;99.90;;;;;;5109551;27;20108;-88
2023/04/13 06:38:57;;;;;;;9.50;4.25;;;7.10;99.90;;;;;;5110996;27;20139;-87
2023/04/13 06:41:23;;;;;;;6.20;3.88;;;7.10;99.90;;;;;;5109878;27;20039;-87
2023/04/13 06:43:49;;;;;;;5.85;3.72;;;7.20;99.90;;;;;;5093833;27;20537;-86
2023/04/13 06:46:14;;;;;;;7.22;3.92;;;7.20;99.90;;;;;;5111474;27;20065;-87
2023/04/13 06:48:40;;;;;;;6.13;3.30;;;7.30;99.90;;;;;;5110661;27;20058;-89
2023/04/13 06:51:06;;;;;;;7.07;3.40;;;7.30;99.90;;;;;;5093319;27;20043;-88
2023/04/13 06:53:31;;;;;;;5.93;3.83;;;7.40;99.90;;;;;;5110580;27;20385;-89
2023/04/13 06:55:57;;;;;;;5.07;3.25;;;7.50;99.90;;;;;;5094695;27;20409;-84
2023/04/13 06:58:23;;;;;;;6.43;3.45;;;7.60;99.90;;;;;;5110377;27;20039;-87
2023/04/13 07:00:48;;;;;;;4.70;2.90;;;7.70;99.90;;;;;;5129356;27;20054;-86
2023/04/13 07:03:14;;;;;;;3.40;3.03;;;7.70;99.90;;;;;;5093770;27;20055;-86
2023/04/13 07:05:40;;;;;;;9.15;3.55;;;7.70;99.90;;;;;;5111179;27;20438;-86
2023/04/13 07:08:06;;;;;;;7.85;3.50;;;7.80;99.90;;;;;;5093125;27;20466;-87
2023/04/13 07:10:31;;;;;;;4.68;3.25;;;7.80;99.90;;;;;;5109961;27;20035;-86
2023/04/13 07:12:57;;;;;;;6.88;3.00;;;7.80;99.90;;;;;;5110879;27;20580;-87
2023/04/13 07:15:23;;;;;;;10.05;4.70;;;7.80;99.90;;;;;;5110428;27;20043;-87
2023/04/13 07:17:48;;;;;;;14.60;7.30;;;7.90;99.90;;;;;;5109902;27;20054;-86
2023/04/13 07:20:14;;;;;;;7.22;4.25;;;7.90;99.90;;;;;;5111054;27;20062;-85
2023/04/13 07:22:40;;;;;;;12.75;5.85;;;8.00;99.90;;;;;;5088497;28;20046;-86
2023/04/13 07:25:06;;;;;;;5.85;3.50;;;8.10;99.90;;;;;;5110378;27;20043;-86
2023/04/13 07:27:32;;;;;;;7.40;3.10;;;8.10;99.90;;;;;;5109803;27;20054;-87
2023/04/13 07:29:58;;;;;;;5.25;3.10;;;8.20;99.90;;;;;;5107891;27;20035;-87
2023/04/13 07:32:26;;;;;;;4.90;3.15;;;8.30;99.90;;;;;;5090967;27;20053;-87
2023/04/13 07:34:52;;;;;;;7.45;2.97;;;8.50;99.90;;;;;;5089127;28;20058;-88
2023/04/13 07:37:17;;;;;;;5.88;2.65;;;8.70;99.90;;;;;;5121100;27;20058;-87
2023/04/13 07:39:43;;;;;;;5.45;3.03;;;8.80;99.90;;;;;;5092563;27;20089;-89
2023/04/13 07:42:10;;;;;;;3.50;2.97;;;8.90;99.90;;;;;;5106667;27;20046;-86
2023/04/13 07:44:35;;;;;;;7.78;2.97;;;9.40;99.90;;;;;;5108938;27;20044;-87
2023/04/13 07:47:01;;;;;;;4.38;2.97;;;8.80;99.90;;;;;;5108316;27;20043;-86
2023/04/13 07:49:27;;;;;;;4.28;3.20;;;9.50;99.90;;;;;;5091443;28;20043;-87
2023/04/13 07:51:53;;;;;;;4.50;2.70;;;8.60;99.90;;;;;;5107739;27;20054;-87
2023/04/13 07:54:19;;;;;;;6.43;3.13;;;8.40;99.90;;;;;;5108961;28;20054;-87
2023/04/13 07:56:45;;;;;;;5.70;2.80;;;8.30;99.90;;;;;;5109694;28;20055;-87
2023/04/13 07:59:12;;;;;;;5.43;2.55;;;8.30;99.90;;;;;;5093627;28;20070;-87
2023/04/13 08:01:38;;;;;;;3.78;2.60;;;8.60;99.90;;;;;;5109790;28;20100;-87
2023/04/13 08:04:06;;;;;;;5.85;2.40;;;8.30;99.90;;;;;;5108976;28;20051;-86
2023/04/13 08:06:33;;;;;;;4.53;2.50;;;8.20;99.90;;;;;;5110937;27;20046;-87
2023/04/13 08:08:59;;;;;;;8.68;2.33;;;8.50;99.90;;;;;;5092792;28;20404;-87
2023/04/13 08:11:24;;;;;;;4.43;2.25;;;8.60;99.90;;;;;;5110935;28;20114;-87
2023/04/13 08:13:50;;;;;;;2.95;2.10;;;8.70;99.90;;;;;;5108933;28;20039;-88
2023/04/13 08:16:16;;;;;;;4.95;2.08;;;8.70;99.90;;;;;;5089998;28;20050;-88
2023/04/13 08:18:41;;;;;;;4.85;2.17;;;8.70;99.90;;;;;;5096790;28;20122;-87
2023/04/13 08:21:13;;;;;;;5.03;1.80;;;8.70;99.90;;;;;;5109253;28;20389;-88
2023/04/13 08:23:41;;;;;;;2.35;1.58;;;8.70;99.90;;;;;;5108214;28;20050;-86
2023/04/13 08:26:07;;;;;;;2.65;1.60;;;8.60;99.90;;;;;;5110820;28;20526;-87
2023/04/13 08:28:34;;;;;;;2.85;1.50;;;8.70;99.90;;;;;;5108714;28;20043;-88
2023/04/13 08:31:00;;;;;;;5.38;1.55;;;8.80;99.90;;;;;;5110374;28;20073;-87
2023/04/13 08:33:26;;;;;;;3.05;1.60;;;8.80;99.90;;;;;;5109081;28;20035;-88
2023/04/13 08:35:54;;;;;;;2.25;1.48;;;9.00;99.90;;;;;;5109231;27;20581;-88
2023/04/13 08:38:19;;;;;;;2.78;1.50;;;9.70;99.90;;;;;;5110675;28;20354;-89
2023/04/13 08:40:47;;;;;;;1.73;1.50;;;9.00;99.90;;;;;;5109731;28;20039;-87
2023/04/13 08:43:13;;;;;;;5.03;1.80;;;8.80;99.90;;;;;;5109682;28;20416;-87
2023/04/13 08:45:41;;;;;;;3.35;1.65;;;8.50;99.90;;;;;;5092370;27;20477;-86
2023/04/13 08:48:09;;;;;;;5.00;1.80;;;8.30;99.90;;;;;;5111444;27;20066;-86
2023/04/13 08:50:35;;;;;;;2.65;1.52;;;8.10;99.90;;;;;;5112267;27;20438;-86
2023/04/13 08:53:02;;;;;;;2.90;1.60;;;8.00;99.90;;;;;;5111073;27;20043;-86
2023/04/13 08:55:28;;;;;;;1.85;1.50;;;8.00;99.90;;;;;;5112755;27;20039;-86
2023/04/13 08:57:57;;;;;;;3.35;2.05;;;7.90;99.90;;;;;;5113956;27;20146;-86
2023/04/13 09:00:24;;;;;;;3.95;2.20;;;7.80;99.90;;;;;;5131046;27;20071;-86
2023/04/13 09:02:59;;;;;;;2.70;1.83;;;8.30;99.90;;;;;;5113579;27;20035;-86
2023/04/13 09:05:26;;;;;;;3.67;2.38;;;7.80;99.90;;;;;;5118969;27;20066;-85
2023/04/13 09:07:55;;;;;;;2.17;1.88;;;7.80;99.90;;;;;;5095629;27;20043;-86
2023/04/13 09:10:22;;;;;;;3.85;2.30;;;7.90;99.90;;;;;;5096193;27;20047;-86
2023/04/13 09:12:50;;;;;;;3.65;2.63;;;8.30;99.90;;;;;;5113320;27;20500;-86
2023/04/13 09:15:15;;;;;;;5.38;2.28;;;7.90;99.90;;;;;;5112845;27;20052;-86
2023/04/13 09:17:42;;;;;;;4.05;1.80;;;8.00;99.90;;;;;;5112992;27;20050;-86
2023/04/13 09:20:20;;;;;;;5.10;1.80;;;8.00;99.90;;;;;;5095611;27;20074;-86
2023/04/13 09:22:46;;;;;;;2.20;1.52;;;8.00;99.90;;;;;;5113737;27;20424;-87
2023/04/13 09:25:27;;;;;;;1.60;1.50;;;8.60;99.90;;;;;;5112630;27;20103;-86
2023/04/13 09:27:54;;;;;;;5.10;1.80;;;8.30;99.90;;;;;;5112505;27;20047;-86
2023/04/13 09:30:24;;;;;;;3.42;1.30;;;8.30;99.90;;;;;;5095547;27;20039;-87
2023/04/13 09:33:06;;;;;;;2.05;1.10;;;8.30;99.90;;;;;;5111944;27;20039;-87
2023/04/13 09:35:33;;;;;;;2.13;0.90;;;7.60;99.90;;;;;;5110337;28;20067;-87
2023/04/13 09:37:59;;;;;;;3.95;1.75;;;8.60;99.90;;;;;;5103777;27;20051;-88
2023/04/13 09:40:26;;;;;;;3.90;1.67;;;8.70;99.90;;;;;;5110927;27;20114;-87
2023/04/13 09:43:06;;;;;;;1.27;0.90;;;8.70;99.90;;;;;;5095975;27;20035;-87
2023/04/13 09:45:37;;;;;;;1.58;1.40;;;8.70;99.90;;;;;;5112144;27;20039;-87
2023/04/13 09:48:04;;;;;;;4.13;1.05;;;8.70;99.90;;;;;;5111220;27;20137;-88
2023/04/13 09:50:35;;;;;;;1.92;1.17;;;8.60;99.90;;;;;;5094838;27;20504;-86
2023/04/13 09:53:06;;;;;;;4.47;1.20;;;8.70;99.90;;;;;;5090152;27;20138;-87
2023/04/13 09:55:33;;;;;;;3.75;1.05;;;8.90;99.90;;;;;;5094644;27;20099;-86
2023/04/13 09:58:16;;;;;;;2.00;0.90;;;9.10;99.90;;;;;;5112397;27;20043;-87
2023/04/13 10:00:45;;;;;;;3.38;0.75;;;9.40;99.90;;;;;;5094914;27;20041;-87
2023/04/13 10:03:15;;;;;;;2.20;0.88;;;9.70;99.90;;;;;;5112151;27;20445;-88
2023/04/13 10:05:42;;;;;;;2.40;1.10;;;10.00;99.90;;;;;;5111794;27;20043;-88
2023/04/13 10:08:08;;;;;;;2.17;1.08;;;10.20;99.90;;;;;;5110277;27;20055;-87
2023/04/13 10:10:35;;;;;;;5.53;1.40;;;10.30;99.90;;;;;;5095231;27;20538;-87
2023/04/13 10:13:24;;;;;;;6.38;1.85;;;10.40;99.90;;;;;;5112072;27;20051;-87
2023/04/13 10:16:01;;;;;;;3.33;1.30;;;10.50;99.90;;;;;;5092247;28;20050;-87
2023/04/13 10:19:02;;;;;;;3.30;1.40;;;11.50;99.90;;;;;;5093977;27;20058;-87
2023/04/13 10:21:35;;;;;;;3.78;1.35;;;10.90;99.90;;;;;;5050820;27;20059;-86
2023/04/13 10:24:10;;;;;;;4.35;1.30;;;11.00;99.90;;;;;;5110562;27;20035;-86
2023/04/13 10:26:36;;;;;;;4.53;1.45;;;11.10;99.90;;;;;;5110501;27;20163;-88
2023/04/13 10:29:03;;;;;;;3.80;1.60;;;11.00;99.90;;;;;;5094572;27;20147;-90
2023/04/13 10:31:45;;;;;;;4.47;1.40;;;10.60;99.90;;;;;;5112568;27;20043;-88
2023/04/13 10:34:25;;;;;;;4.60;1.45;;;10.50;99.90;;;;;;5094844;27;20047;-87
2023/04/13 10:36:54;;;;;;;5.68;1.52;;;10.40;99.90;;;;;;5095286;27;20051;-90
2023/04/13 10:39:28;;;;;;;4.70;1.45;;;11.10;99.90;;;;;;5111247;27;20047;-88
2023/04/13 10:42:01;;;;;;;5.60;1.55;;;10.50;99.90;;;;;;5110921;27;20051;-86
2023/04/13 10:44:47;;;;;;;5.13;2.20;;;10.90;99.90;;;;;;5111936;27;20050;-87
2023/04/13 10:47:19;;;;;;;7.82;2.05;;;11.10;99.90;;;;;;5109016;27;20051;-86
2023/04/13 10:49:47;;;;;;;7.82;1.67;;;11.10;99.90;;;;;;5092193;27;20044;-87
2023/04/13 10:52:13;;;;;;;6.22;1.98;;;11.50;99.90;;;;;;5110651;27;20541;-88
2023/04/13 10:54:41;;;;;;;6.93;1.65;;;11.10;99.90;;;;;;5111621;27;20174;-87
2023/04/13 10:57:08;;;;;;;5.95;1.77;;;11.20;99.90;;;;;;5093217;27;20103;-88
2023/04/13 10:59:50;;;;;;;7.53;1.70;;;11.30;99.90;;;;;;5093535;27;20122;-88
2023/04/13 11:02:16;;;;;;;6.03;1.95;;;11.30;99.90;;;;;;5094715;27;20046;-87
2023/04/13 11:04:44;;;;;;;4.70;2.08;;;11.30;99.90;;;;;;5110074;27;20381;-88
2023/04/13 11:07:18;;;;;;;5.25;2.03;;;11.20;99.90;;;;;;5094680;27;20054;-86
2023/04/13 11:09:51;;;;;;;5.25;1.40;;;11.20;99.90;;;;;;5110638;27;20051;-87
2023/04/13 11:12:18;;;;;;;4.07;1.58;;;11.60;99.90;;;;;;5111992;27;20047;-86
2023/04/13 11:14:45;;;;;;;6.63;1.60;;;11.20;99.90;;;;;;5109615;27;20035;-87
2023/04/13 11:17:13;;;;;;;4.68;1.77;;;11.30;99.90;;;;;;5110766;27;20115;-86
2023/04/13 11:19:50;;;;;;;5.07;1.20;;;11.30;99.90;;;;;;5110332;27;20050;-86
2023/04/13 11:22:17;;;;;;;7.10;1.40;;;11.30;99.90;;;;;;5091832;27;20112;-86
2023/04/13 11:24:44;;;;;;;6.82;1.60;;;11.80;99.90;;;;;;5094941;27;20043;-88
2023/04/13 11:27:17;;;;;;;5.70;1.73;;;11.30;99.90;;;;;;5110616;27;20055;-88
2023/04/13 11:29:43;;;;;;;5.35;1.40;;;11.20;99.90;;;;;;5110085;27;20043;-86
2023/04/13 11:32:18;;;;;;;6.65;1.73;;;11.20;99.90;;;;;;5109747;27;20370;-87
2023/04/13 11:34:43;;;;;;;8.07;2.22;;;11.20;99.90;;;;;;5094942;28;20096;-86
2023/04/13 11:37:10;;;;;;;6.85;1.65;;;11.00;99.90;;;;;;5089553;28;20401;-88
2023/04/13 11:39:38;;;;;;;6.97;1.63;;;11.20;99.90;;;;;;5089527;28;20055;-86
2023/04/13 11:42:05;;;;;;;4.88;1.75;;;10.90;99.90;;;;;;5107267;28;20150;-85
2023/04/13 11:44:34;;;;;;;7.50;1.80;;;10.80;99.90;;;;;;5106384;28;20092;-85
2023/04/13 11:47:01;;;;;;;5.03;1.60;;;10.80;99.90;;;;;;5107936;28;20058;-86
2023/04/13 11:49:27;;;;;;;8.35;2.42;;;10.80;99.90;;;;;;5106682;28;20489;-87
2023/04/13 11:51:54;;;;;;;13.93;3.03;;;10.60;99.90;;;;;;5102768;28;20104;-87
2023/04/13 11:54:21;;;;;;;7.38;1.58;;;10.50;99.90;;;;;;5103242;28;20039;-86
2023/04/13 11:56:47;;;;;;;4.97;1.73;;;10.50;99.90;;;;;;5106212;28;20048;-85
2023/04/13 11:59:13;;;;;;;5.70;1.80;;;10.50;99.90;;;;;;5092602;28;20063;-86
2023/04/13 12:01:39;;;;;;;6.78;2.00;;;10.60;99.90;;;;;;5096634;28;20039;-87
2023/04/13 12:04:06;;;;;;;7.80;2.13;;;11.10;99.90;;;;;;5104089;28;20659;-87
2023/04/13 12:06:33;;;;;;;6.40;2.10;;;10.70;99.90;;;;;;5103576;28;20425;-85
2023/04/13 12:09:04;;;;;;;4.22;1.80;;;10.80;99.90;;;;;;5103087;28;20109;-86
2023/04/13 12:11:40;;;;;;;7.15;1.92;;;10.90;99.90;;;;;;5089380;28;20067;-85
2023/04/13 12:14:06;;;;;;;7.97;1.90;;;10.90;99.90;;;;;;5087874;28;20112;-85
2023/04/13 12:16:33;;;;;;;6.90;1.70;;;11.10;99.90;;;;;;5105114;28;20100;-87
2023/04/13 12:19:08;;;;;;;8.05;1.70;;;11.20;99.90;;;;;;5108236;28;20493;-87
2023/04/13 12:21:35;;;;;;;5.95;2.15;;;12.00;99.90;;;;;;5087122;28;20152;-86
2023/04/13 12:24:02;;;;;;;5.70;2.17;;;11.60;99.90;;;;;;5110090;28;20489;-87
2023/04/13 12:26:40;;;;;;;6.10;1.42;;;12.50;99.90;;;;;;5110018;28;20040;-89
2023/04/13 12:29:07;;;;;;;6.28;1.40;;;11.90;99.90;;;;;;5110969;28;20055;-86
2023/04/13 12:31:37;;;;;;;4.40;1.17;;;11.90;99.90;;;;;;5111404;28;20082;-87
2023/04/13 12:34:06;;;;;;;5.80;1.58;;;11.80;99.90;;;;;;5110430;28;20071;-87
2023/04/13 12:36:35;;;;;;;5.45;1.55;;;11.60;99.90;;;;;;5110116;28;20048;-87
2023/04/13 12:39:01;;;;;;;6.88;1.70;;;11.40;99.90;;;;;;5108421;28;20090;-88
2023/04/13 12:41:27;;;;;;;7.68;1.70;;;11.30;99.90;;;;;;5108814;28;20435;-88
2023/04/13 12:43:53;;;;;;;3.20;1.20;;;11.20;99.90;;;;;;5093152;28;20532;-87
2023/04/13 12:46:19;;;;;;;7.03;1.55;;;11.30;99.90;;;;;;5109915;28;20501;-86
2023/04/13 12:48:44;;;;;;;8.35;1.67;;;11.50;99.90;;;;;;5110264;28;20715;-86
2023/04/13 12:51:10;;;;;;;5.18;1.30;;;11.60;99.90;;;;;;5110005;28;20035;-87
2023/04/13 12:53:36;;;;;;;5.95;1.63;;;11.60;99.90;;;;;;5086752;28;20039;-87
2023/04/13 12:56:02;;;;;;;6.38;1.85;;;11.60;99.90;;;;;;5073067;28;20054;-86
2023/04/13 12:58:28;;;;;;;8.48;1.83;;;11.70;99.90;;;;;;5102666;28;20105;-86